Weather at Leopoldsburg Airfield

Public forecast

Using degrees Celsius for public forecast. Weather courtesy of forecast.io.

Closest aviation weather report (METAR) to Leopoldsburg Airfield

Closest report is Kleine Brogel Air Base, 6.8 nm (12.6 km) ENE. Retrieved 2020/10/30 03:40 UTC (2 minutes ago):

EBBL 300340Z AUTO 22012KT 8000 OVC014/// 13/12 Q1016 GRN

Closest aviation forecast (TAF) to Leopoldsburg Airfield

Forecast is more than 12 hours old.

Closest forecast is Kleine Brogel Air Base, 6.8 nm (12.6 km) ENE. Retrieved 2020/09/28 19:12 UTC (1 month ago):

TAF TAF COR EBBL 281541Z 2819/2907 2819/2907 18005KT 5000 BKN006 TEMPO 2819/2906 3000 -DZ SCT003 BKN005 PROB30 TEMPO 2820/2903 1000 DZ SCT001 BKN003